AirNav   Air Wisconsin Up To $57,000 Bonus
 
 1082 users online  

27IN St Vincent Indianapolis Hospital Heliport
Indianapolis, Indiana, USA

GOING TO INDIANAPOLIS?


FAA INFORMATION EFFECTIVE 26 JANUARY 2023

Location

FAA Identifier: 27IN
Lat/Long: 39-54-28.6400N 086-11-36.4500W
39-54.477333N 086-11.607500W
39.9079556,-86.1934583
(estimated)
Elevation: 833 ft. / 254 m (estimated)
From city: 11 miles NE of INDIANAPOLIS, IN
Time zone: UTC -5 (UTC -4 during Daylight Saving Time)
Zip code: 46260

Heliport Operations

Heliport use: Private use. Permission required prior to landing
Activation date: 05/2006
Control tower: no
ARTCC: INDIANAPOLIS CENTER
FSS: TERRE HAUTE FLIGHT SERVICE STATION
Attendance: UNATNDD
Wind indicator: lighted
Segmented circle: no
Lights: SS-SR

Heliport Communications

WX ASOS at EYE (7 nm SW): 121.575 (317-329-1754)
WX AWOS-3 at UMP (7 nm E): 119.375 (317-842-3911)
WX AWOS-3PT at TYQ (8 nm N): 120.725 (317-769-3154)
WX AWOS-3 at 8A4 (9 nm S): 135.525 (317-955-3160)
WX ASOS at IND (12 nm S): PHONE 317-241-0348
WX AWOS-3 at MQJ (14 nm E): 124.175 (317-335-3037)
WX AWOS-3P at 2R2 (16 nm SW): 118.025 (317-718-4872)
WX AWOS-3P at HFY (18 nm S): 118.525 (317-882-5862)

Nearby radio navigation aids

VOR radial/distance  VOR name  Freq  Var
VHPr054/9.8BRICKYARD VORTAC116.3001E
SHBr313/23.7SHELBYVILLE VOR/DME116.1501E
OKKr194/37.7KOKOMO VORTAC113.5005W

 
NDB name  Hdg/Dist  Freq  Var  ID
METROPOLITAN258/6.833803WUMP ..- -- .--.
CRAWFORDSVILLE102/33.538804WCFJ -.-. ..-. .---

Heliport Services

Runway Information

Helipad H1

Dimensions: 100 x 100 ft. / 30 x 30 m
Surface: concrete
Runway edge lights: PERI
Latitude: 39-54.479500N
Longitude: 086-11.612167W
Elevation: 833.0 ft.
Traffic pattern: leftleft

Helipad H2

Dimensions: 35 x 35 ft. / 11 x 11 m
Surface: asphalt/concrete
Latitude: 39-54.477167N
Longitude: 086-11.601000W
Elevation: 833.0 ft.
Traffic pattern: leftleft

Heliport Ownership and Management from official FAA records

Ownership: Privately-owned
Owner: ST VINCENT HOSPITALS & HLTH SVCS
2001 WEST 86TH ST
INDIANAPOLIS, IN 46260
Phone 317-338-2345
Manager: JANE WHINNERY
8220 NAAB ROAD, SUITE 200
INDIANAPOLIS, IN 46260
Phone (317) 338-7162
OTHER CONTACT CHRISTINE FREDRIC 317-338-7061.

Additional Remarks

ADDITIONAL CONTACT - ERICA WEHRMEISTER - HOSPITAL ADMIN - 317-338-7000
FOR CD CTC INDIANAPOLIS APCH AT 317-227-5743.

Instrument Procedures

There are no published instrument procedures at 27IN.

Some nearby airports with instrument procedures:

KEYE - Eagle Creek Airpark (7 nm SW)
KUMP - Indianapolis Metro Airport (7 nm E)
KTYQ - Indianapolis Executive Airport (8 nm N)
8A4 - Indianapolis Downtown Heliport (9 nm S)
KIND - Indianapolis International Airport (12 nm S)
KMQJ - Indianapolis Regional Airport (14 nm E)
2R2 - Hendricks County Airport-Gordon Graham Field (16 nm SW)
5I4 - Sheridan Airport (16 nm N)
KHFY - Indy South Greenwood Airport (18 nm S)
 
Loc | Ops | Rwys | IFR | FBO | Links
Com | Nav | Svcs | Stats | Notes
Area around 27IN (St Vincent Indianapolis Hospital Heliport)
 
Road maps at: MapQuest Bing Google
 
Aerial photo
No photo
 
Sectional chart

 
Airport distance calculator
Flying to St Vincent Indianapolis Hospital Heliport? Find the distance to fly.

From to 27IN

Sunrise and sunset
Times for 08-Feb-2023
 Local
(UTC-5)
 Zulu
(UTC)
Morning civil twilight07:1912:19
Sunrise07:4712:47
Sunset18:1123:11
Evening civil twilight18:3923:39

Current date and time
Zulu (UTC)  09-Feb-2023 03:52:05
Local (UTC-5)  08-Feb-2023 22:52:05
 
METAR
KEYE 
7nm SW 
090304Z AUTO 10007KT 4SM -RA BR OVC009 07/06 A3003 RMK AO2 P0001 T00670056
KUMP 
7nm E 
090335Z AUTO 11003KT 5SM SCT015 OVC031 07/07 A3004 RMK AO2 P0002 T00670067
KTYQ 
8nm N 
090335Z AUTO 11009KT 4SM RA OVC006 06/05 A3003 RMK AO2 P0002 T00550051
KIND 
12nm S 
090302Z 10008KT 4SM -RA BR BKN009 OVC015 07/06 A3003 RMK AO2 P0001 T00670056
KMQJ 
14nm E 
090335Z AUTO 11007KT 7SM BKN017 BKN032 OVC090 06/06 A3004 RMK AO1
KHFY 
18nm S 
090335Z AUTO 11006KT 5SM SCT011 BKN060 OVC085 07/07 A3003 RMK AO2 T00700070
TAF
KIND 
12nm S 
090105Z 0901/1006 12008KT 6SM -RA BR OVC015 FM090500 11012KT 2SM RA BR OVC005 WS020/16040KT FM090900 16014G28KT 5SM -RA BR OVC019 WS020/19050KT FM091300 19024G39KT 6SM -SHRA BR OVC030 WS020/19055KT FM091500 21027G43KT P6SM VCSH BKN030 FM100000 25021G36KT P6SM OVC015
NOTAMs
Click for the latest NOTAMs
NOTAMs are issued by the DoD/FAA and will open in a separate window not controlled by AirNav.

 

 
 

Would you like to see your business listed on this page?

 If your business provides an interesting product or service to pilots, flight crews, aircraft, or users of the St Vincent Indianapolis Hospital Heliport, you should consider listing it here.  To start the listing process, click on the button below
 
Add a business
 

Other Pages about St Vincent Indianapolis Hospital Heliport

Update a link
 
Copyright © AirNav, LLC. All rights reserved. Privacy Policy  Contact